Time;durP1;ratioP1;P1;durP2;ratioP2;P2;SDS_P1;SDS_P2;PMS_P1;PMS_P2;Temp;Humidity;BMP_temperature;BMP_pressure;BME280_temperature;BME280_humidity;BME280_pressure;Samples;Min_cycle;Max_cycle;Signal;HPM_P1;HPM_P2
2021/09/14 00:01:25;;;;;;;16.95;15.10;;;;;;;20.53;67.87;98638.03;5052040;28;20043;-64
2021/09/14 00:03:51;;;;;;;16.80;14.52;;;;;;;20.58;67.93;98645.34;5075883;28;20032;-62
2021/09/14 00:06:16;;;;;;;19.60;14.75;;;;;;;20.54;67.31;98647.59;5053866;28;20043;-62
2021/09/14 00:08:41;;;;;;;16.92;14.93;;;;;;;20.39;67.82;98645.19;5055296;28;20093;-64
2021/09/14 00:11:07;;;;;;;16.75;14.93;;;;;;;20.38;67.82;98643.56;5074759;28;20019;-66
2021/09/14 00:13:32;;;;;;;16.35;14.68;;;;;;;20.36;68.44;98642.97;5068527;28;20022;-62
2021/09/14 00:15:58;;;;;;;19.23;13.57;;;;;;;20.42;68.86;98643.97;5058403;28;20444;-62
2021/09/14 00:18:23;;;;;;;16.05;14.45;;;;;;;20.41;68.50;98640.50;5061640;28;20070;-62
2021/09/14 00:20:48;;;;;;;17.08;15.38;;;;;;;20.32;69.19;98636.47;5069158;28;20158;-61
2021/09/14 00:23:14;;;;;;;16.63;15.02;;;;;;;20.47;69.13;98642.31;5052456;28;20489;-63
2021/09/14 00:25:39;;;;;;;16.63;14.93;;;;;;;20.38;68.56;98640.13;5078521;28;20035;-62
2021/09/14 00:28:05;;;;;;;16.88;14.40;;;;;;;20.25;68.70;98640.97;5070915;28;20298;-61
2021/09/14 00:30:30;;;;;;;17.40;14.65;;;;;;;20.17;68.51;98642.00;5090333;28;20047;-61
2021/09/14 00:32:55;;;;;;;16.02;14.45;;;;;;;20.04;68.71;98624.34;5063058;28;20023;-65
2021/09/14 00:35:21;;;;;;;17.25;15.13;;;;;;;20.03;68.30;98614.81;5070199;28;20036;-62
2021/09/14 00:37:46;;;;;;;16.42;14.73;;;;;;;20.27;68.44;98646.84;5060644;28;21242;-63
2021/09/14 00:40:12;;;;;;;15.73;14.13;;;;;;;20.21;68.55;98643.19;5056713;28;20531;-62
2021/09/14 00:42:38;;;;;;;16.75;14.15;;;;;;;20.24;68.21;98645.41;5067514;28;20024;-61
2021/09/14 00:45:05;;;;;;;18.33;14.73;;;;;;;20.25;67.69;98633.03;5093511;28;20035;-64
2021/09/14 00:47:30;;;;;;;15.48;13.88;;;;;;;20.17;67.90;98639.34;5078914;28;20109;-62
2021/09/14 00:49:55;;;;;;;16.40;14.70;;;;;;;20.16;68.15;98635.09;5070306;28;20699;-62
2021/09/14 00:52:21;;;;;;;15.82;14.20;;;;;;;20.13;67.81;98644.22;5075524;28;20505;-61
2021/09/14 00:54:46;;;;;;;15.98;14.40;;;;;;;20.21;67.65;98645.03;5073326;28;20067;-63
2021/09/14 00:57:12;;;;;;;16.20;14.55;;;;;;;20.11;68.18;98642.78;5058902;28;20019;-62
2021/09/14 00:59:37;;;;;;;18.48;15.55;;;;;;;20.04;68.74;98640.19;5058658;28;20039;-63
2021/09/14 01:02:03;;;;;;;16.65;14.95;;;;;;;19.94;68.91;98639.78;5060727;28;20796;-62
2021/09/14 01:04:29;;;;;;;16.70;14.43;;;;;;;19.97;67.55;98610.34;5076974;28;20036;-63
2021/09/14 01:06:54;;;;;;;16.75;14.07;;;;;;;20.04;67.24;98636.72;5063019;28;20090;-62
2021/09/14 01:09:20;;;;;;;16.52;14.88;;;;;;;20.09;67.73;98653.56;5069603;28;20648;-62
2021/09/14 01:11:46;;;;;;;16.70;14.95;;;;;;;20.15;66.75;98647.47;5067926;28;20129;-62
2021/09/14 01:14:11;;;;;;;16.05;14.45;;;;;;;20.18;66.73;98648.88;5066594;28;20031;-63
2021/09/14 01:16:38;;;;;;;17.40;15.07;;;;;;;20.15;67.09;98636.91;5064261;28;20036;-62
2021/09/14 01:19:05;;;;;;;16.95;15.15;;;;;;;20.17;66.84;98642.78;5056343;28;20669;-62
2021/09/14 01:21:31;;;;;;;17.75;14.35;;;;;;;20.04;67.12;98637.56;5051648;28;20036;-65
2021/09/14 01:23:57;;;;;;;17.75;14.60;;;;;;;20.01;66.94;98637.16;5057066;28;20058;-61
2021/09/14 01:26:23;;;;;;;16.38;14.65;;;;;;;19.76;66.78;98601.63;5068044;28;20493;-62
2021/09/14 01:28:49;;;;;;;16.20;14.45;;;;;;;19.98;66.65;98643.63;5068022;28;20452;-62
2021/09/14 01:31:14;;;;;;;15.93;13.98;;;;;;;19.98;65.81;98633.88;5068227;28;20028;-62
2021/09/14 01:33:48;;;;;;;16.27;14.57;;;;;;;20.03;66.21;98629.84;5067647;28;20789;-61
2021/09/14 01:36:14;;;;;;;16.15;14.25;;;;;;;19.96;66.12;98632.47;5062865;28;20032;-62
2021/09/14 01:38:40;;;;;;;16.45;13.48;;;;;;;20.00;66.16;98632.88;5091947;28;20024;-62
2021/09/14 01:41:05;;;;;;;16.23;14.40;;;;;;;20.00;66.34;98632.88;5060670;28;20033;-63
2021/09/14 01:43:31;;;;;;;16.80;14.57;;;;;;;19.83;66.54;98606.91;5059353;28;20089;-63
2021/09/14 01:45:56;;;;;;;16.38;14.23;;;;;;;19.94;66.43;98622.13;5077065;28;20438;-62
2021/09/14 01:48:22;;;;;;;16.85;14.35;;;;;;;19.94;67.04;98626.59;5063801;28;20090;-63
2021/09/14 01:50:47;;;;;;;16.83;14.43;;;;;;;19.92;67.52;98618.88;5071724;28;20056;-61
2021/09/14 01:53:13;;;;;;;16.52;14.82;;;;;;;19.90;67.31;98628.81;5060247;28;20096;-62
2021/09/14 01:55:38;;;;;;;16.83;14.68;;;;;;;19.69;66.60;98590.25;5062705;28;20016;-61
2021/09/14 01:58:04;;;;;;;16.17;14.48;;;;;;;19.85;66.99;98620.69;5066385;28;20111;-65
2021/09/14 02:00:32;;;;;;;15.95;14.32;;;;;;;19.80;67.11;98619.69;5055355;28;20028;-59
2021/09/14 02:38:29;;;;;;;17.48;14.27;;;;;;;19.38;71.02;98623.31;5086861;28;20039;-62
2021/09/14 02:58:37;;;;;;;15.88;13.43;;;;;;;19.34;70.50;98610.72;5068944;28;20051;-62
2021/09/14 03:00:05;;;;;;;17.65;15.68;;;;;;;19.44;70.92;98618.22;5086026;28;20039;-63
2021/09/14 03:02:31;;;;;;;16.02;14.18;;;;;;;19.19;71.08;98584.56;5051385;28;20683;-61
2021/09/14 03:04:56;;;;;;;16.65;14.93;;;;;;;19.33;71.35;98617.00;5067287;28;20051;-64
2021/09/14 03:07:22;;;;;;;16.75;14.95;;;;;;;19.34;71.57;98619.44;5062481;28;20356;-62
2021/09/14 03:09:47;;;;;;;16.42;14.50;;;;;;;19.12;70.58;98568.72;5070264;28;20386;-63
2021/09/14 03:12:12;;;;;;;16.73;14.93;;;;;;;19.37;70.84;98612.97;5075357;28;20034;-62
2021/09/14 03:14:38;;;;;;;17.60;14.70;;;;;;;19.37;70.53;98605.06;5057611;28;20394;-62
2021/09/14 03:17:03;;;;;;;15.73;13.82;;;;;;;19.27;69.79;98578.28;5073172;28;20023;-63
2021/09/14 03:19:29;;;;;;;16.42;14.63;;;;;;;19.43;69.90;98608.72;5058846;28;20051;-61
2021/09/14 03:21:54;;;;;;;16.90;13.98;;;;;;;19.14;69.84;98568.53;5076997;28;20432;-62
2021/09/14 03:24:19;;;;;;;16.00;14.25;;;;;;;19.38;69.59;98610.13;5067196;28;20019;-62
2021/09/14 03:26:45;;;;;;;14.88;13.38;;;;;;;19.36;69.32;98600.78;5066464;28;20390;-62
2021/09/14 03:29:10;;;;;;;20.00;14.52;;;;;;;19.47;69.08;98616.00;5071738;28;20020;-62
2021/09/14 03:31:36;;;;;;;16.05;14.40;;;;;;;19.14;68.91;98576.44;5060001;28;20107;-62
2021/09/14 03:34:02;;;;;;;16.00;13.98;;;;;;;19.40;69.01;98618.66;5080084;28;20165;-62
2021/09/14 03:36:27;;;;;;;15.93;14.32;;;;;;;19.33;68.96;98617.84;5090133;28;20118;-62
2021/09/14 03:38:53;;;;;;;16.30;14.45;;;;;;;19.30;69.66;98620.06;5060757;28;20099;-63
2021/09/14 03:41:18;;;;;;;16.58;13.73;;;;;;;19.31;69.03;98605.84;5078526;28;20034;-63
2021/09/14 03:43:44;;;;;;;18.95;14.30;;;;;;;19.30;69.15;98609.50;5058294;28;20063;-64
2021/09/14 03:46:09;;;;;;;15.40;13.52;;;;;;;19.30;68.95;98610.31;5069960;28;20034;-62
2021/09/14 03:48:35;;;;;;;16.00;14.40;;;;;;;19.33;69.02;98606.47;5061863;28;20028;-62
2021/09/14 03:51:00;;;;;;;18.00;13.35;;;;;;;19.14;68.62;98577.25;5054293;28;20481;-63
2021/09/14 03:53:25;;;;;;;16.40;14.73;;;;;;;19.31;69.21;98613.75;5064611;28;20526;-62
2021/09/14 03:55:51;;;;;;;15.65;14.05;;;;;;;19.27;69.53;98604.63;5065150;28;20027;-66
2021/09/14 03:58:16;;;;;;;17.77;13.20;;;;;;;19.03;69.47;98577.84;5065282;28;20032;-62
2021/09/14 04:00:43;;;;;;;18.17;15.23;;;;;;;18.97;69.91;98578.66;5090511;28;20471;-62
2021/09/14 04:03:15;;;;;;;15.77;14.15;;;;;;;19.02;69.96;98581.50;5074701;28;20765;-65
2021/09/14 04:06:22;;;;;;;17.58;15.45;;;;;;;19.18;70.00;98604.00;5067827;28;20031;-63
2021/09/14 04:11:16;;;;;;;16.20;14.07;;;;;;;19.25;69.47;98612.75;5074781;28;20170;-64
2021/09/14 04:13:42;;;;;;;16.08;14.15;;;;;;;19.17;69.23;98605.84;5081478;28;20327;-62
2021/09/14 04:16:07;;;;;;;15.90;14.20;;;;;;;19.25;68.93;98623.28;5068306;28;20478;-64
2021/09/14 04:18:33;;;;;;;15.38;13.75;;;;;;;19.23;69.06;98617.41;5086771;28;20116;-62
2021/09/14 04:20:58;;;;;;;15.13;13.52;;;;;;;19.16;69.87;98621.84;5092960;28;20038;-62
2021/09/14 04:23:23;;;;;;;19.10;14.70;;;;;;;19.02;69.95;98599.94;5090865;28;20028;-65
2021/09/14 04:25:49;;;;;;;19.05;14.18;;;;;;;18.89;70.33;98584.09;5059349;28;20048;-62
2021/09/14 04:28:14;;;;;;;16.75;14.45;;;;;;;19.09;70.60;98631.56;5051632;28;20741;-65
2021/09/14 04:30:40;;;;;;;16.40;14.63;;;;;;;19.01;70.27;98625.47;5080184;28;20138;-63
2021/09/14 04:33:06;;;;;;;16.13;14.10;;;;;;;19.05;70.41;98632.97;5088348;28;20134;-63
2021/09/14 04:35:31;;;;;;;17.45;14.60;;;;;;;19.12;70.47;98639.09;5076096;28;20073;-62
2021/09/14 04:37:57;;;;;;;16.73;15.02;;;;;;;19.08;70.55;98629.97;5096790;28;20031;-65
2021/09/14 04:40:23;;;;;;;16.23;14.52;;;;;;;19.15;70.11;98633.41;5071641;28;20789;-64
2021/09/14 04:42:48;;;;;;;16.60;14.93;;;;;;;18.99;70.88;98614.31;5072164;28;20027;-62
2021/09/14 04:45:13;;;;;;;16.15;14.10;;;;;;;19.13;70.23;98630.16;5092725;28;20904;-62
2021/09/14 04:47:39;;;;;;;17.50;14.35;;;;;;;18.75;70.45;98585.84;5060585;28;20566;-62
2021/09/14 04:50:05;;;;;;;17.63;15.40;;;;;;;18.84;70.43;98605.78;5052531;28;20027;-65
2021/09/14 04:52:30;;;;;;;15.40;13.80;;;;;;;19.04;69.73;98637.44;5071345;28;20051;-61
2021/09/14 04:54:56;;;;;;;15.23;13.60;;;;;;;19.07;69.60;98633.59;5062410;28;20872;-62
2021/09/14 04:57:21;;;;;;;15.95;14.25;;;;;;;18.86;69.28;98606.38;5072263;28;20028;-63
2021/09/14 04:59:46;;;;;;;17.60;14.35;;;;;;;19.12;69.32;98639.09;5092641;28;20153;-66
2021/09/14 05:02:12;;;;;;;17.92;14.60;;;;;;;19.13;68.70;98635.41;5057592;28;20028;-64
2021/09/14 05:04:37;;;;;;;17.20;14.43;;;;;;;19.10;69.42;98630.56;5049246;28;20035;-63
2021/09/14 05:07:03;;;;;;;15.32;13.68;;;;;;;18.82;69.53;98599.91;5078224;28;20607;-62
2021/09/14 05:09:28;;;;;;;15.90;14.02;;;;;;;19.06;69.48;98629.34;5080885;28;20111;-62
2021/09/14 05:11:54;;;;;;;17.45;14.20;;;;;;;18.86;69.63;98600.31;5079018;28;20106;-63
2021/09/14 05:14:19;;;;;;;16.02;14.32;;;;;;;18.91;69.77;98605.78;5060682;28;20023;-63
2021/09/14 05:16:46;;;;;;;15.27;13.68;;;;;;;19.05;69.55;98627.72;5073008;28;20030;-62
2021/09/14 05:19:12;;;;;;;15.50;13.90;;;;;;;19.04;69.24;98637.44;5069780;28;20115;-65
2021/09/14 05:21:46;;;;;;;15.77;14.05;;;;;;;19.04;69.02;98631.34;5092895;28;20040;-61
2021/09/14 05:24:11;;;;;;;16.02;14.38;;;;;;;19.04;69.41;98639.25;5054904;28;20039;-66
2021/09/14 05:26:37;;;;;;;14.77;13.25;;;;;;;19.07;69.20;98636.22;5093495;28;20036;-62
2021/09/14 05:29:03;;;;;;;14.55;13.05;;;;;;;19.06;68.68;98645.97;5074527;28;20040;-62
2021/09/14 05:31:28;;;;;;;15.55;13.95;;;;;;;19.13;67.99;98645.97;5072409;28;20027;-63
2021/09/14 05:33:54;;;;;;;15.20;13.60;;;;;;;19.10;68.01;98644.53;5065206;28;20487;-63
2021/09/14 05:36:19;;;;;;;17.25;13.85;;;;;;;19.10;69.07;98656.91;5070026;28;20095;-62
2021/09/14 05:38:45;;;;;;;15.93;14.30;;;;;;;19.02;69.37;98661.34;5051764;28;20366;-63
2021/09/14 05:41:10;;;;;;;16.95;14.38;;;;;;;19.02;69.10;98661.34;5058926;28;20038;-62
2021/09/14 05:43:35;;;;;;;16.67;13.43;;;;;;;19.04;69.54;98669.06;5077639;28;20106;-65
2021/09/14 05:46:01;;;;;;;16.70;14.85;;;;;;;19.00;69.66;98666.00;5064530;28;20671;-64
2021/09/14 05:48:26;;;;;;;18.40;13.82;;;;;;;19.05;69.80;98669.88;5073706;28;20039;-62
2021/09/14 05:50:52;;;;;;;15.50;13.85;;;;;;;18.97;70.08;98669.03;5059391;28;20028;-62
2021/09/14 05:53:17;;;;;;;15.40;13.80;;;;;;;18.92;70.12;98670.63;5072024;28;20042;-62
2021/09/14 05:55:43;;;;;;;18.10;14.90;;;;;;;18.81;70.08;98650.94;5060126;28;20024;-62
2021/09/14 05:58:08;;;;;;;15.38;13.75;;;;;;;18.99;69.78;98677.53;5062387;28;20478;-64
2021/09/14 06:00:35;;;;;;;16.25;14.55;;;;;;;18.98;69.95;98681.22;5090417;28;20038;-62
2021/09/14 06:03:01;;;;;;;18.00;14.95;;;;;;;18.97;69.55;98668.22;5073965;28;20028;-65
2021/09/14 06:05:26;;;;;;;15.40;13.77;;;;;;;19.05;69.56;98677.78;5073256;28;20020;-63
2021/09/14 06:07:52;;;;;;;16.13;13.73;;;;;;;19.05;69.56;98683.84;5067791;28;20114;-64
2021/09/14 06:10:17;;;;;;;17.08;13.88;;;;;;;19.06;69.34;98682.84;5069084;28;20027;-64
2021/09/14 06:12:43;;;;;;;16.13;13.52;;;;;;;19.09;68.99;98687.72;5087466;28;20036;-62
2021/09/14 06:15:09;;;;;;;28.73;14.00;;;;;;;19.00;68.84;98649.38;5083041;28;20019;-63
2021/09/14 06:17:35;;;;;;;37.45;13.80;;;;;;;19.16;68.84;98683.28;5057061;28;20030;-65
2021/09/14 06:20:01;;;;;;;21.48;13.13;;;;;;;19.27;68.58;98676.59;5074504;28;20112;-62
2021/09/14 06:22:26;;;;;;;25.33;14.80;;;;;;;19.20;68.75;98665.25;5053085;28;20032;-63
2021/09/14 06:24:52;;;;;;;20.30;13.98;;;;;;;19.24;69.44;98679.66;5055497;28;20046;-62
2021/09/14 06:27:17;;;;;;;26.38;14.68;;;;;;;19.28;69.17;98678.25;5066533;28;20040;-63
2021/09/14 06:29:42;;;;;;;18.80;14.02;;;;;;;19.29;69.18;98676.41;5067214;28;20024;-66
2021/09/14 06:32:08;;;;;;;20.80;14.02;;;;;;;19.28;69.45;98691.44;5061723;28;20016;-62
2021/09/14 06:34:34;;;;;;;31.88;15.73;;;;;;;19.35;69.41;98683.53;5082000;28;20031;-64
2021/09/14 06:37:00;;;;;;;19.42;13.88;;;;;;;19.47;69.06;98694.31;5070891;28;20023;-63
2021/09/14 06:39:25;;;;;;;16.50;13.57;;;;;;;19.43;68.64;98693.09;5070940;28;20034;-63
2021/09/14 06:41:51;;;;;;;15.57;13.50;;;;;;;19.47;68.40;98695.09;5052102;28;20098;-64
2021/09/14 06:44:16;;;;;;;16.63;14.20;;;;;;;19.32;68.58;98662.84;5089121;28;20051;-63
2021/09/14 06:46:41;;;;;;;26.95;14.80;;;;;;;19.39;69.22;98668.94;5080137;28;20032;-62
2021/09/14 06:49:07;;;;;;;16.92;14.35;;;;;;;19.67;69.00;98703.06;5067192;28;20052;-66
2021/09/14 06:51:32;;;;;;;15.50;13.80;;;;;;;19.68;67.97;98707.31;5076423;28;20020;-63
2021/09/14 06:53:58;;;;;;;16.70;13.75;;;;;;;19.70;67.80;98696.56;5061521;28;20087;-62
2021/09/14 06:56:24;;;;;;;18.17;14.30;;;;;;;19.69;68.73;98703.66;5073235;28;20648;-63
2021/09/14 06:58:50;;;;;;;17.65;14.02;;;;;;;19.65;68.77;98696.38;5071624;28;20490;-64
2021/09/14 07:01:19;;;;;;;18.42;13.20;;;;;;;19.61;67.84;98709.13;5067202;28;20027;-63
2021/09/14 07:03:45;;;;;;;17.40;13.55;;;;;;;19.57;67.48;98692.09;5055077;28;20043;-62
2021/09/14 07:06:10;;;;;;;15.20;12.95;;;;;;;19.69;67.36;98706.28;5075749;28;20031;-63
2021/09/14 07:08:35;;;;;;;15.18;13.35;;;;;;;19.62;67.30;98705.47;5066064;28;20035;-63
2021/09/14 07:11:01;;;;;;;14.93;13.43;;;;;;;19.66;66.94;98705.88;5096632;28;20396;-63
2021/09/14 07:13:26;;;;;;;14.23;12.70;;;;;;;19.70;66.76;98705.28;5075071;28;20051;-62
2021/09/14 07:15:52;;;;;;;15.75;13.82;;;;;;;19.70;66.33;98707.13;5073441;28;20107;-63
2021/09/14 07:18:17;;;;;;;15.60;13.75;;;;;;;19.71;66.18;98696.38;5087137;28;20198;-63
2021/09/14 07:20:43;;;;;;;16.77;14.27;;;;;;;19.64;67.00;98700.84;5066231;28;20020;-63
2021/09/14 07:23:08;;;;;;;14.70;13.20;;;;;;;19.48;66.89;98669.56;5096111;28;20094;-65
2021/09/14 07:25:39;;;;;;;15.55;13.95;;;;;;;19.72;66.95;98698.00;5055505;28;20032;-63
2021/09/14 07:28:05;;;;;;;15.18;13.60;;;;;;;19.74;66.53;98697.81;5078386;28;20100;-64
2021/09/14 07:30:30;;;;;;;18.58;13.90;;;;;;;19.79;66.49;98698.03;5076715;28;20039;-63
2021/09/14 07:32:56;;;;;;;15.55;13.95;;;;;;;19.75;67.06;98696.78;5059184;28;20032;-63
2021/09/14 07:35:22;;;;;;;15.50;13.85;;;;;;;19.72;67.17;98687.44;5062310;28;20023;-63
2021/09/14 07:37:48;;;;;;;14.48;12.98;;;;;;;19.78;66.36;98693.75;5080603;28;20077;-62
2021/09/14 07:40:13;;;;;;;15.52;13.60;;;;;;;19.63;66.12;98666.75;5073000;28;20031;-64
2021/09/14 07:42:39;;;;;;;15.73;13.85;;;;;;;19.76;66.04;98677.31;5063390;28;20119;-64
2021/09/14 07:45:05;;;;;;;13.85;12.48;;;;;;;19.91;66.01;98704.31;5071341;28;20031;-63
2021/09/14 07:47:30;;;;;;;15.07;13.27;;;;;;;19.96;65.84;98706.34;5064024;28;20051;-62
2021/09/14 07:49:55;;;;;;;15.27;13.43;;;;;;;19.97;65.80;98710.63;5050938;28;20040;-63
2021/09/14 07:52:21;;;;;;;17.77;13.38;;;;;;;19.78;65.85;98678.72;5074177;28;20398;-63
2021/09/14 07:54:46;;;;;;;15.88;13.73;;;;;;;19.98;66.04;98699.84;5073376;28;20047;-64
2021/09/14 07:57:12;;;;;;;17.48;13.55;;;;;;;20.11;66.12;98701.66;5076194;28;20036;-63
2021/09/14 07:59:37;;;;;;;15.88;14.20;;;;;;;20.13;65.00;98709.38;5058141;28;20042;-63
2021/09/14 08:02:03;;;;;;;14.85;13.35;;;;;;;20.22;65.14;98702.06;5068229;28;20054;-64
2021/09/14 08:04:28;;;;;;;14.38;12.90;;;;;;;20.22;64.99;98699.44;5072012;27;20093;-62
2021/09/14 08:06:53;;;;;;;15.27;13.40;;;;;;;20.34;64.95;98711.81;5063760;28;20710;-64
2021/09/14 08:09:19;;;;;;;18.85;13.68;;;;;;;20.38;65.02;98709.56;5084587;28;20038;-63
2021/09/14 08:11:44;;;;;;;16.80;13.02;;;;;;;20.46;64.71;98713.81;5073743;28;20062;-63
2021/09/14 08:14:10;;;;;;;15.27;13.25;;;;;;;20.31;65.32;98701.66;5060946;28;20362;-66
2021/09/14 08:16:35;;;;;;;15.68;13.32;;;;;;;20.41;65.61;98710.97;5076530;28;20035;-63
2021/09/14 08:19:00;;;;;;;15.23;12.50;;;;;;;20.44;64.56;98705.28;5067621;28;20027;-62
2021/09/14 08:21:26;;;;;;;15.10;13.52;;;;;;;20.55;64.73;98709.94;5059573;28;20035;-60
2021/09/14 08:23:52;;;;;;;15.48;13.75;;;;;;;20.57;64.63;98699.97;5068615;28;20031;-60
2021/09/14 08:26:18;;;;;;;15.57;13.95;;;;;;;20.60;64.61;98709.34;5072135;28;20173;-60
2021/09/14 08:28:43;;;;;;;16.25;13.85;;;;;;;20.41;64.60;98677.47;5068730;28;20055;-60
2021/09/14 08:31:08;;;;;;;13.85;12.43;;;;;;;20.66;63.21;98700.59;5074131;28;20445;-60
2021/09/14 08:33:34;;;;;;;15.95;13.27;;;;;;;20.58;64.47;98701.59;5093074;28;20107;-60
2021/09/14 08:35:59;;;;;;;16.35;13.73;;;;;;;20.59;64.40;98712.97;5054520;28;20126;-62
2021/09/14 08:38:25;;;;;;;15.60;14.00;;;;;;;20.53;64.01;98710.16;5089107;28;20062;-59
2021/09/14 08:40:50;;;;;;;13.77;12.35;;;;;;;20.64;64.36;98715.84;5086687;28;20034;-60
2021/09/14 08:43:16;;;;;;;17.52;13.18;;;;;;;20.71;61.72;98706.06;5093066;28;20477;-60
2021/09/14 08:45:41;;;;;;;19.85;13.68;;;;;;;20.87;61.59;98715.38;5068450;28;20445;-60
2021/09/14 08:48:07;;;;;;;15.10;12.48;;;;;;;20.94;61.56;98710.88;5056254;28;20092;-61
2021/09/14 08:50:32;;;;;;;14.55;12.00;;;;;;;21.00;60.71;98709.22;5064183;28;20751;-60
2021/09/14 08:52:58;;;;;;;14.98;12.77;;;;;;;21.01;60.42;98701.09;5073229;28;20679;-60
2021/09/14 08:55:24;;;;;;;15.38;11.95;;;;;;;21.12;60.61;98711.00;5057147;28;20538;-60
2021/09/14 08:57:51;;;;;;;16.00;13.18;;;;;;;21.23;59.92;98722.75;5090015;28;20032;-60
2021/09/14 09:00:22;;;;;;;13.80;12.40;;;;;;;21.40;59.74;98722.25;5068279;28;20115;-60
2021/09/14 09:02:55;;;;;;;19.65;13.38;;;;;;;21.52;58.69;98720.59;5063826;28;20092;-62
2021/09/14 09:05:38;;;;;;;13.35;11.73;;;;;;;21.71;58.20;98725.97;5072848;28;20127;-60
2021/09/14 09:08:16;;;;;;;13.15;11.48;;;;;;;21.76;56.81;98726.94;5064506;28;20760;-63
2021/09/14 09:10:41;;;;;;;14.10;11.85;;;;;;;21.66;55.89;98703.59;5072481;28;20707;-60
2021/09/14 09:13:07;;;;;;;13.65;11.73;;;;;;;21.84;56.41;98729.31;5088579;28;20251;-60
2021/09/14 09:15:36;;;;;;;13.00;11.70;;;;;;;21.89;56.07;98729.50;5050465;28;20024;-60
2021/09/14 09:18:07;;;;;;;13.60;11.95;;;;;;;21.81;56.63;98699.81;5070528;28;20035;-60
2021/09/14 09:20:34;;;;;;;14.43;11.38;;;;;;;21.69;56.51;98675.91;5078272;28;20727;-60
2021/09/14 09:23:02;;;;;;;12.48;11.10;;;;;;;22.19;57.34;98744.72;5068473;28;20502;-60
2021/09/14 09:25:28;;;;;;;14.32;11.43;;;;;;;22.29;55.51;98749.59;5087756;28;20040;-60
2021/09/14 09:28:08;;;;;;;14.23;11.25;;;;;;;22.13;54.84;98723.63;5073810;28;20045;-61
2021/09/14 09:30:37;;;;;;;12.15;10.88;;;;;;;22.23;54.19;98738.00;5090795;28;20114;-61
2021/09/14 09:33:03;;;;;;;13.00;11.07;;;;;;;22.21;55.51;98726.78;5069388;28;20024;-60
2021/09/14 09:35:31;;;;;;;12.95;11.55;;;;;;;22.36;54.37;98737.09;5089559;28;20462;-58
2021/09/14 09:37:57;;;;;;;13.43;11.48;;;;;;;22.38;54.84;98732.38;5097838;28;20502;-58
2021/09/14 09:40:41;;;;;;;12.02;10.77;;;;;;;22.35;55.93;98708.97;5063473;28;20023;-59
2021/09/14 09:43:08;;;;;;;16.83;11.25;;;;;;;22.46;56.32;98741.88;5076670;28;20494;-57
2021/09/14 09:45:42;;;;;;;13.00;11.35;;;;;;;22.59;57.82;98743.59;5079817;28;20032;-58
2021/09/14 09:48:08;;;;;;;13.02;11.15;;;;;;;22.56;57.29;98738.72;5073653;28;20028;-58
2021/09/14 09:50:33;;;;;;;12.63;11.07;;;;;;;22.67;56.30;98745.13;5080551;28;20040;-57
2021/09/14 09:53:04;;;;;;;13.40;11.45;;;;;;;22.82;55.86;98737.66;5071965;28;20023;-57
2021/09/14 09:55:30;;;;;;;14.90;12.07;;;;;;;22.69;56.10;98733.31;5074864;28;20093;-57
2021/09/14 09:57:56;;;;;;;13.52;11.73;;;;;;;22.78;56.50;98739.94;5070613;28;20024;-58
2021/09/14 10:00:21;;;;;;;14.50;12.35;;;;;;;22.73;57.57;98731.81;5068062;28;20027;-58
2021/09/14 10:02:53;;;;;;;13.55;12.15;;;;;;;22.84;58.97;98720.47;5097961;28;20031;-57
2021/09/14 10:05:20;;;;;;;14.80;12.40;;;;;;;23.07;57.13;98731.47;5059379;28;20537;-59
2021/09/14 10:07:46;;;;;;;16.52;12.20;;;;;;;23.12;55.91;98724.44;5047676;28;20236;-58
2021/09/14 10:10:12;;;;;;;15.98;12.35;;;;;;;23.17;55.60;98718.50;5089966;28;20027;-59
2021/09/14 10:12:37;;;;;;;16.52;12.18;;;;;;;23.26;56.06;98724.31;5067263;28;20118;-58
2021/09/14 10:15:11;;;;;;;12.40;10.90;;;;;;;23.42;55.68;98726.31;5082457;28;20031;-59
2021/09/14 10:17:54;;;;;;;14.13;12.30;;;;;;;23.32;54.88;98726.84;5081199;28;20032;-59
2021/09/14 10:20:22;;;;;;;12.75;11.38;;;;;;;23.14;55.27;98703.81;5080421;28;20133;-58
2021/09/14 10:23:08;;;;;;;16.40;12.90;;;;;;;23.40;55.18;98728.38;5060295;28;20710;-58
2021/09/14 10:25:34;;;;;;;14.23;11.00;;;;;;;23.64;53.88;98718.66;5079701;28;20067;-59
2021/09/14 10:28:09;;;;;;;21.88;14.00;;;;;;;23.76;51.92;98713.38;5077100;28;20114;-58
2021/09/14 10:30:34;;;;;;;20.83;14.60;;;;;;;23.91;51.49;98713.78;5080366;28;20519;-60
2021/09/14 10:33:00;;;;;;;15.40;12.35;;;;;;;23.96;51.28;98716.53;5076786;28;20024;-58
2021/09/14 10:35:30;;;;;;;14.98;11.50;;;;;;;24.03;51.49;98702.34;5096269;28;20436;-60
2021/09/14 10:38:10;;;;;;;13.73;12.10;;;;;;;24.07;51.13;98711.47;5085994;28;20496;-59
2021/09/14 10:40:44;;;;;;;16.63;12.40;;;;;;;24.16;50.93;98699.47;5074514;28;20068;-60
2021/09/14 10:43:30;;;;;;;14.35;11.55;;;;;;;24.27;49.60;98692.53;5092830;28;20409;-60
2021/09/14 10:45:57;;;;;;;13.18;11.50;;;;;;;24.28;49.77;98694.97;5074419;28;20737;-59
2021/09/14 10:48:28;;;;;;;15.88;10.68;;;;;;;24.30;49.77;98695.53;5059103;28;21170;-59
2021/09/14 10:50:55;;;;;;;14.88;10.68;;;;;;;24.31;49.35;98691.03;5087757;28;20031;-60
2021/09/14 10:53:28;;;;;;;13.82;11.07;;;;;;;24.40;48.95;98688.84;5095157;28;20027;-59
2021/09/14 10:55:56;;;;;;;12.73;10.00;;;;;;;24.39;48.78;98685.38;5064038;28;20719;-58
2021/09/14 10:58:22;;;;;;;14.70;11.20;;;;;;;24.33;48.77;98660.56;5062898;28;20042;-58
2021/09/14 11:00:49;;;;;;;13.50;10.40;;;;;;;24.32;48.90;98661.56;5096713;28;20035;-58
2021/09/14 11:03:15;;;;;;;13.68;10.70;;;;;;;24.54;48.78;98680.41;5074438;28;20024;-59
2021/09/14 11:05:47;;;;;;;11.95;10.35;;;;;;;24.41;49.08;98664.69;5091815;28;20031;-59
2021/09/14 11:08:12;;;;;;;12.95;10.27;;;;;;;24.52;48.04;98679.00;5055588;28;20020;-58
2021/09/14 11:10:40;;;;;;;14.50;10.38;;;;;;;24.56;48.34;98664.22;5066590;28;20038;-57
2021/09/14 11:13:08;;;;;;;11.80;10.57;;;;;;;24.65;48.50;98667.34;5073408;28;20357;-59
2021/09/14 11:15:34;;;;;;;13.32;10.23;;;;;;;24.54;49.10;98671.63;5073973;28;20024;-59
2021/09/14 11:18:00;;;;;;;13.02;10.68;;;;;;;24.45;49.15;98655.22;5097927;28;20031;-60
2021/09/14 11:20:26;;;;;;;15.25;10.80;;;;;;;24.52;49.59;98665.72;5094031;27;20670;-60
2021/09/14 11:22:53;;;;;;;15.30;11.38;;;;;;;24.60;49.97;98673.34;5098369;28;20043;-59
2021/09/14 11:25:28;;;;;;;13.63;11.10;;;;;;;24.63;50.19;98672.88;5076243;28;20028;-57
2021/09/14 11:27:57;;;;;;;13.93;11.73;;;;;;;24.61;50.08;98669.66;5078170;28;20031;-59
2021/09/14 11:30:23;;;;;;;;;;;;;;;24.65;50.48;98664.69;5098985;28;20039;-59
2021/09/14 11:32:50;;;;;;;13.32;11.88;;;;;;;24.44;50.41;98636.84;5098146;28;19920;-58
2021/09/14 11:35:16;;;;;;;13.32;10.98;;;;;;;24.69;50.72;98655.19;5077139;28;20490;-62
2021/09/14 11:37:41;;;;;;;14.02;11.85;;;;;;;24.73;50.71;98661.63;5079257;28;20043;-63
2021/09/14 11:40:18;;;;;;;12.75;11.43;;;;;;;24.75;50.62;98651.56;5075756;28;20036;-59
2021/09/14 11:42:57;;;;;;;15.82;11.77;;;;;;;24.59;50.29;98631.03;5096709;28;20794;-60
2021/09/14 11:45:24;;;;;;;13.75;11.48;;;;;;;24.67;50.00;98644.78;5076291;28;20019;-60
2021/09/14 11:47:51;;;;;;;14.60;11.27;;;;;;;24.79;49.70;98662.53;5077505;28;20122;-60
2021/09/14 11:50:24;;;;;;;13.07;11.57;;;;;;;24.73;49.82;98657.16;5088526;28;20047;-59
2021/09/14 11:53:05;;;;;;;13.27;11.35;;;;;;;24.78;49.53;98655.63;5081994;27;20028;-59
2021/09/14 11:55:32;;;;;;;12.43;11.15;;;;;;;24.80;50.01;98659.66;5075125;28;20077;-61
2021/09/14 11:57:58;;;;;;;16.80;12.13;;;;;;;24.84;50.15;98654.69;5077871;28;20038;-60
2021/09/14 12:00:39;;;;;;;13.60;11.65;;;;;;;24.88;50.42;98650.50;5071220;28;20341;-59
2021/09/14 12:03:05;;;;;;;12.95;11.30;;;;;;;24.89;50.49;98652.13;5074468;28;20056;-60
2021/09/14 12:05:32;;;;;;;13.98;11.27;;;;;;;24.91;50.61;98658.81;5069179;28;20027;-59
2021/09/14 12:07:58;;;;;;;14.95;11.50;;;;;;;24.94;50.39;98658.34;5093576;28;20030;-60
2021/09/14 12:10:25;;;;;;;13.55;11.50;;;;;;;24.78;50.72;98632.50;5094484;28;20026;-59